Terminal Aerodrome Forecast
Issued by NWS

Home | Current Version | Previous Version | Text Only | Print | Product List | Glossary On
Versions: 1 2 3 4 5 6 7 8 9 10 11 12 13 14 15 16 17 18 19
000
FTUS46 KSGX 241738
TAFONT
TAF
KONT 241738Z 2418/2524 VRB04KT P6SM SCT040 SCT120
     FM242000 26007KT P6SM SCT035 SCT150
     FM250100 VRB04KT P6SM SKC
     FM252100 27010KT P6SM SCT050=

USA.gov is the U.S. government's official web portal to all federal, state and local government web resources and services.